createdAt,value
2022-08-31T00:00:33.899Z,1.30
2022-08-31T00:03:19.485Z,1.20
2022-08-31T00:05:46.698Z,1.10
2022-08-31T00:08:13.931Z,1.23
2022-08-31T00:10:45.046Z,1.70
2022-08-31T00:13:12.376Z,1.50
2022-08-31T00:15:39.722Z,1.40
2022-08-31T00:18:06.871Z,1.23
2022-08-31T00:20:34.926Z,1.30
2022-08-31T00:23:07.983Z,1.42
2022-08-31T00:25:36.320Z,1.38
2022-08-31T00:28:04.814Z,1.42
2022-08-31T00:30:32.517Z,1.50
2022-08-31T00:32:59.577Z,1.13
2022-08-31T00:35:32.234Z,1.20
2022-08-31T00:37:59.640Z,1.30
2022-08-31T00:40:26.951Z,1.08
2022-08-31T00:42:54.504Z,1.17
2022-08-31T00:45:22.897Z,1.40
2022-08-31T00:47:51.459Z,1.02
2022-08-31T00:50:19.494Z,1.20
2022-08-31T00:52:51.199Z,1.23
2022-08-31T00:55:23.042Z,1.38
2022-08-31T00:57:53.377Z,1.40
2022-08-31T01:00:23.433Z,1.33
2022-08-31T01:02:51.256Z,1.37
2022-08-31T01:05:19.624Z,1.30
2022-08-31T01:07:48.382Z,1.33
2022-08-31T01:10:17.795Z,1.25
2022-08-31T01:12:46.964Z,1.60
2022-08-31T01:15:15.555Z,1.40
2022-08-31T01:17:44.303Z,1.65
2022-08-31T01:20:14.411Z,1.30
2022-08-31T01:23:14.035Z,1.20
2022-08-31T01:25:44.283Z,1.20
2022-08-31T01:28:12.544Z,1.50
2022-08-31T01:30:41.607Z,1.50
2022-08-31T01:33:11.359Z,1.43
2022-08-31T01:35:40.214Z,1.30
2022-08-31T01:38:07.445Z,1.43
2022-08-31T01:40:46.599Z,1.30
2022-08-31T01:43:13.689Z,1.50
2022-08-31T01:45:41.817Z,1.30
2022-08-31T01:48:08.773Z,1.40
2022-08-31T01:50:35.891Z,1.40
2022-08-31T01:53:03.377Z,1.40
2022-08-31T01:55:30.549Z,1.90
2022-08-31T01:57:58.876Z,1.30
2022-08-31T02:00:58.107Z,1.33
2022-08-31T02:03:25.171Z,1.47
2022-08-31T02:08:19.141Z,1.80
2022-08-31T02:10:46.384Z,1.20
2022-08-31T02:13:13.904Z,1.30
2022-08-31T02:15:41.041Z,1.30
2022-08-31T02:18:08.523Z,1.50
2022-08-31T02:20:39.303Z,1.50
2022-08-31T02:23:06.391Z,1.57
2022-08-31T02:25:34.667Z,1.40
2022-08-31T02:28:03.156Z,1.60
2022-08-31T02:30:30.334Z,1.60
2022-08-31T02:32:57.865Z,1.80
2022-08-31T02:35:24.831Z,1.50
2022-08-31T02:37:51.868Z,1.50
2022-08-31T02:40:18.939Z,1.53
2022-08-31T02:42:52.956Z,1.73
2022-08-31T02:45:23.727Z,1.50
2022-08-31T02:47:51.477Z,1.60
2022-08-31T02:50:28.619Z,1.63
2022-08-31T02:52:56.826Z,2.20
2022-08-31T02:55:25.304Z,1.70
2022-08-31T02:57:53.374Z,1.83
2022-08-31T03:00:23.445Z,1.77
2022-08-31T03:02:51.116Z,1.80
2022-08-31T03:05:18.995Z,1.77
2022-08-31T03:07:46.123Z,1.80
2022-08-31T03:10:14.785Z,1.57
2022-08-31T03:12:42.722Z,1.87
2022-08-31T03:15:10.530Z,1.80
2022-08-31T03:17:37.737Z,1.80
2022-08-31T03:20:07.297Z,1.73
2022-08-31T03:22:34.500Z,1.83
2022-08-31T03:25:01.822Z,1.90
2022-08-31T03:27:30.293Z,1.67
2022-08-31T03:29:58.488Z,1.97
2022-08-31T03:32:28.552Z,1.70
2022-08-31T03:34:56.983Z,2.00
2022-08-31T03:37:24.260Z,1.83
2022-08-31T03:39:53.590Z,1.90
2022-08-31T03:42:20.667Z,1.80
2022-08-31T03:44:47.996Z,1.70
2022-08-31T03:47:22.651Z,1.90
2022-08-31T03:49:50.542Z,2.10
2022-08-31T03:52:24.817Z,1.70
2022-08-31T03:55:00.367Z,1.77
2022-08-31T03:57:27.546Z,1.67
2022-08-31T03:59:57.444Z,2.00
2022-08-31T04:02:43.048Z,1.70
2022-08-31T04:05:31.061Z,1.83
2022-08-31T04:08:17.921Z,1.70
2022-08-31T04:10:47.690Z,1.87
2022-08-31T04:13:32.817Z,1.90
2022-08-31T04:16:22.668Z,1.90
2022-08-31T04:19:09.361Z,1.67
2022-08-31T04:21:45.032Z,2.00
2022-08-31T04:24:13.321Z,2.10
2022-08-31T04:26:41.065Z,1.90
2022-08-31T04:29:13.085Z,1.93
2022-08-31T04:31:41.339Z,1.80
2022-08-31T04:34:08.971Z,1.90
2022-08-31T04:36:37.158Z,2.40
2022-08-31T04:39:05.732Z,1.87
2022-08-31T04:41:35.698Z,1.83
2022-08-31T04:44:04.265Z,1.90
2022-08-31T04:46:32.438Z,2.17
2022-08-31T04:48:59.547Z,1.80
2022-08-31T04:51:31.065Z,2.20
2022-08-31T04:53:58.743Z,1.90
2022-08-31T04:56:29.202Z,1.87
2022-08-31T04:59:05.729Z,2.30
2022-08-31T05:01:43.157Z,1.93
2022-08-31T05:04:29.232Z,2.03
2022-08-31T05:06:56.601Z,2.10
2022-08-31T05:09:24.472Z,1.73
2022-08-31T05:11:54.111Z,2.30
2022-08-31T05:14:22.208Z,1.90
2022-08-31T05:16:56.219Z,2.20
2022-08-31T05:19:23.585Z,1.90
2022-08-31T05:21:50.606Z,2.00
2022-08-31T05:24:22.619Z,1.73
2022-08-31T05:26:53.558Z,1.80
2022-08-31T05:29:24.080Z,2.00
2022-08-31T05:31:58.577Z,2.03
2022-08-31T05:34:26.072Z,2.00
2022-08-31T05:36:55.768Z,2.03
2022-08-31T05:39:23.998Z,2.20
2022-08-31T05:41:51.109Z,2.00
2022-08-31T05:44:21.301Z,2.10
2022-08-31T05:46:54.669Z,2.23
2022-08-31T05:49:28.517Z,1.70
2022-08-31T05:51:57.147Z,2.27
2022-08-31T05:54:24.252Z,1.97
2022-08-31T05:56:51.732Z,2.37
2022-08-31T05:59:19.010Z,2.00
2022-08-31T06:01:46.089Z,2.20
2022-08-31T06:04:13.141Z,1.90
2022-08-31T06:06:41.569Z,1.93
2022-08-31T06:09:11.870Z,1.80
2022-08-31T06:11:42.152Z,1.80
2022-08-31T06:14:12.380Z,1.80
2022-08-31T06:16:44.080Z,2.40
2022-08-31T06:19:12.184Z,2.10
2022-08-31T06:21:49.928Z,2.00
2022-08-31T06:24:21.553Z,1.80
2022-08-31T06:26:57.894Z,2.20
2022-08-31T06:29:31.497Z,2.30
2022-08-31T06:32:00.379Z,1.90
2022-08-31T06:34:29.299Z,1.90
2022-08-31T06:36:59.485Z,1.90
2022-08-31T06:39:54.902Z,2.40
2022-08-31T06:42:36.111Z,2.03
2022-08-31T06:45:23.293Z,2.03
2022-08-31T06:48:22.304Z,2.08
2022-08-31T06:50:57.240Z,1.95
2022-08-31T06:53:25.585Z,2.00
2022-08-31T06:56:06.609Z,1.98
2022-08-31T06:59:07.560Z,2.03
2022-08-31T07:01:53.156Z,1.85
2022-08-31T07:04:38.690Z,2.08
2022-08-31T07:07:07.393Z,2.13
2022-08-31T07:09:34.845Z,2.03
2022-08-31T07:12:02.046Z,2.13
2022-08-31T07:14:29.218Z,1.80
2022-08-31T07:16:59.452Z,1.80
2022-08-31T07:19:27.021Z,1.60
2022-08-31T07:21:57.875Z,2.00
2022-08-31T07:24:29.989Z,2.00
2022-08-31T07:27:10.000Z,2.00
2022-08-31T07:29:42.974Z,2.08
2022-08-31T07:32:15.477Z,1.70
2022-08-31T07:34:44.127Z,2.03
2022-08-31T07:37:42.089Z,2.30
2022-08-31T07:40:28.667Z,1.77
2022-08-31T07:42:56.369Z,1.65
2022-08-31T07:45:25.649Z,1.90
2022-08-31T07:47:56.244Z,2.10
2022-08-31T07:50:31.659Z,1.90
2022-08-31T07:53:21.548Z,1.70
2022-08-31T07:56:01.856Z,1.60
2022-08-31T07:58:35.098Z,1.60
2022-08-31T08:01:04.197Z,1.92
2022-08-31T08:03:31.249Z,1.83
2022-08-31T08:06:17.764Z,2.20
2022-08-31T08:09:22.334Z,2.00
2022-08-31T08:12:08.856Z,1.92
2022-08-31T08:14:59.743Z,1.92
2022-08-31T08:17:52.742Z,1.95
2022-08-31T08:20:35.358Z,2.60
2022-08-31T08:23:14.989Z,2.15
2022-08-31T08:26:21.288Z,2.28
2022-08-31T08:29:01.463Z,1.88
2022-08-31T08:31:29.106Z,2.33
2022-08-31T08:33:56.399Z,2.25
2022-08-31T08:36:24.033Z,2.35
2022-08-31T08:38:54.024Z,1.88
2022-08-31T08:41:25.196Z,2.80
2022-08-31T08:43:57.197Z,2.35
2022-08-31T08:46:49.727Z,2.15
2022-08-31T08:49:35.289Z,2.47
2022-08-31T08:52:12.733Z,2.40
2022-08-31T08:54:43.716Z,2.50
2022-08-31T08:57:24.610Z,2.67
2022-08-31T08:59:56.460Z,2.33
2022-08-31T09:02:44.364Z,2.50
2022-08-31T09:05:16.036Z,2.55
2022-08-31T09:08:10.243Z,2.20
2022-08-31T09:10:51.135Z,2.72
2022-08-31T09:13:49.758Z,2.40
2022-08-31T09:16:26.217Z,2.35
2022-08-31T09:19:01.799Z,2.53
2022-08-31T09:21:34.506Z,2.53
2022-08-31T09:24:08.753Z,2.75
2022-08-31T09:27:17.373Z,2.97
2022-08-31T09:29:58.115Z,2.40
2022-08-31T09:32:29.092Z,2.53
2022-08-31T09:35:01.566Z,2.47
2022-08-31T09:37:46.506Z,2.97
2022-08-31T09:40:24.335Z,2.30
2022-08-31T09:43:13.807Z,2.22
2022-08-31T09:46:07.455Z,2.45
2022-08-31T09:48:58.604Z,2.50
2022-08-31T09:51:28.864Z,2.80
2022-08-31T09:54:33.196Z,3.13
2022-08-31T09:57:03.146Z,2.75
2022-08-31T09:59:43.852Z,3.17
2022-08-31T10:02:13.285Z,2.67
2022-08-31T10:04:59.221Z,3.10
2022-08-31T10:08:18.888Z,3.42
2022-08-31T10:10:49.022Z,2.55
2022-08-31T10:13:22.056Z,3.13
2022-08-31T10:16:01.867Z,2.85
2022-08-31T10:18:44.941Z,2.80
2022-08-31T10:21:21.319Z,2.42
2022-08-31T10:24:20.604Z,2.70
2022-08-31T10:27:38.354Z,3.20
2022-08-31T10:30:16.395Z,2.42
2022-08-31T10:32:55.886Z,2.35
2022-08-31T10:35:42.644Z,2.90
2022-08-31T10:38:34.761Z,2.83
2022-08-31T10:41:13.801Z,2.17
2022-08-31T10:44:00.187Z,2.47
2022-08-31T10:46:33.119Z,2.80
2022-08-31T10:49:04.063Z,2.70
2022-08-31T10:51:51.066Z,2.70
2022-08-31T10:54:35.716Z,2.58
2022-08-31T10:57:32.040Z,2.75
2022-08-31T11:00:09.948Z,2.40
2022-08-31T11:02:58.553Z,2.17
2022-08-31T11:05:41.223Z,2.92
2022-08-31T11:08:20.325Z,2.40
2022-08-31T11:10:51.721Z,2.70
2022-08-31T11:13:39.287Z,2.50
2022-08-31T11:16:09.469Z,2.38
2022-08-31T11:18:59.357Z,2.13
2022-08-31T11:21:45.274Z,2.28
2022-08-31T11:24:46.023Z,2.60
2022-08-31T11:27:36.916Z,2.20
2022-08-31T11:30:24.321Z,2.55
2022-08-31T11:32:55.513Z,2.08
2022-08-31T11:35:48.112Z,2.17
2022-08-31T11:38:41.396Z,2.33
2022-08-31T11:41:12.148Z,2.13
2022-08-31T11:43:44.423Z,2.45
2022-08-31T11:46:34.144Z,1.88
2022-08-31T11:49:01.273Z,2.20
2022-08-31T11:51:41.020Z,1.90
2022-08-31T11:54:41.634Z,1.60
2022-08-31T11:57:15.983Z,1.95
2022-08-31T11:59:46.371Z,2.17
2022-08-31T12:02:19.696Z,1.73
2022-08-31T12:04:47.521Z,1.58
2022-08-31T12:07:28.347Z,1.42
2022-08-31T12:10:07.584Z,1.70
2022-08-31T12:12:56.345Z,1.88
2022-08-31T12:16:01.430Z,1.70
2022-08-31T12:19:08.140Z,1.65
2022-08-31T12:22:04.823Z,1.63
2022-08-31T12:25:16.111Z,1.58
2022-08-31T12:27:55.150Z,1.70
2022-08-31T12:30:28.314Z,1.90
2022-08-31T12:33:15.419Z,1.90
2022-08-31T12:35:43.428Z,1.88
2022-08-31T12:38:18.487Z,1.80
2022-08-31T12:40:48.600Z,1.63
2022-08-31T12:43:23.352Z,1.80
2022-08-31T12:46:02.340Z,2.00
2022-08-31T12:49:15.968Z,1.60
2022-08-31T12:51:48.541Z,1.88
2022-08-31T12:54:30.547Z,1.80
2022-08-31T12:57:12.593Z,1.75
2022-08-31T13:00:01.242Z,1.60
2022-08-31T13:02:34.789Z,1.60
2022-08-31T13:05:02.989Z,1.83
2022-08-31T13:07:33.315Z,1.60
2022-08-31T13:10:26.499Z,1.80
2022-08-31T13:12:56.725Z,1.80
2022-08-31T13:15:28.863Z,1.92
2022-08-31T13:17:56.602Z,1.90
2022-08-31T13:20:35.575Z,1.75
2022-08-31T13:23:03.017Z,2.05
2022-08-31T13:25:38.075Z,1.98
2022-08-31T13:28:22.207Z,1.80
2022-08-31T13:31:04.092Z,1.60
2022-08-31T13:33:40.368Z,1.60
2022-08-31T13:36:15.376Z,1.75
2022-08-31T13:38:53.302Z,1.45
2022-08-31T13:41:23.217Z,1.77
2022-08-31T13:43:59.070Z,1.75
2022-08-31T13:46:41.888Z,1.63
2022-08-31T13:49:29.731Z,1.50
2022-08-31T13:51:57.057Z,1.75
2022-08-31T13:54:32.264Z,1.60
2022-08-31T13:57:19.735Z,1.70
2022-08-31T13:59:48.833Z,2.33
2022-08-31T14:02:16.153Z,1.50
2022-08-31T14:04:49.109Z,1.63
2022-08-31T14:07:23.860Z,1.70
2022-08-31T14:10:08.038Z,1.45
2022-08-31T14:12:51.731Z,1.42
2022-08-31T14:15:20.633Z,1.63
2022-08-31T14:21:23.168Z,1.30
2022-08-31T14:23:52.837Z,1.90
2022-08-31T14:26:26.356Z,1.60
2022-08-31T14:28:56.558Z,1.52
2022-08-31T14:31:37.611Z,1.40
2022-08-31T14:34:10.304Z,1.60
2022-08-31T14:36:50.342Z,1.63
2022-08-31T14:39:17.336Z,1.50
2022-08-31T14:41:45.566Z,1.48
2022-08-31T14:44:13.529Z,1.55
2022-08-31T14:46:42.257Z,1.60
2022-08-31T14:49:10.775Z,1.45
2022-08-31T14:51:38.558Z,1.70
2022-08-31T14:54:08.990Z,1.50
2022-08-31T14:56:45.317Z,1.67
2022-08-31T14:59:16.060Z,1.50
2022-08-31T15:01:45.549Z,1.40
2022-08-31T15:04:18.454Z,1.40
2022-08-31T15:06:50.449Z,1.58
2022-08-31T15:09:17.451Z,1.38
2022-08-31T15:11:45.340Z,1.60
2022-08-31T15:14:12.614Z,1.80
2022-08-31T15:16:45.604Z,1.40
2022-08-31T15:19:14.319Z,1.70
2022-08-31T15:21:44.909Z,1.98
2022-08-31T15:24:14.612Z,1.70
2022-08-31T15:26:43.428Z,1.58
2022-08-31T15:29:13.418Z,2.25
2022-08-31T15:31:49.237Z,1.50
2022-08-31T15:34:24.663Z,1.58
2022-08-31T15:36:55.980Z,1.60
2022-08-31T15:39:27.091Z,1.50
2022-08-31T15:41:54.973Z,1.30
2022-08-31T15:44:21.994Z,1.42
2022-08-31T15:47:07.619Z,1.60
2022-08-31T15:49:36.838Z,1.20
2022-08-31T15:52:09.101Z,1.58
2022-08-31T15:54:37.585Z,1.27
2022-08-31T15:57:06.109Z,1.35
2022-08-31T15:59:37.333Z,1.30
2022-08-31T16:02:06.026Z,1.30
2022-08-31T16:04:38.267Z,1.40
2022-08-31T16:07:09.206Z,1.42
2022-08-31T16:09:37.458Z,1.55
2022-08-31T16:12:04.579Z,1.50
2022-08-31T16:14:31.696Z,1.20
2022-08-31T16:16:59.631Z,1.67
2022-08-31T16:19:34.982Z,1.35
2022-08-31T16:22:05.688Z,1.55
2022-08-31T16:24:35.899Z,1.40
2022-08-31T16:27:08.816Z,1.33
2022-08-31T16:29:36.511Z,1.23
2022-08-31T16:32:06.690Z,1.20
2022-08-31T16:34:34.779Z,1.13
2022-08-31T16:37:07.823Z,1.27
2022-08-31T16:39:36.215Z,1.30
2022-08-31T16:42:05.064Z,1.15
2022-08-31T16:44:36.521Z,1.20
2022-08-31T16:47:05.544Z,1.42
2022-08-31T16:49:41.162Z,1.25
2022-08-31T16:52:21.493Z,1.10
2022-08-31T16:54:51.024Z,1.00
2022-08-31T16:57:21.421Z,1.30
2022-08-31T16:59:48.974Z,1.38
2022-08-31T17:02:17.401Z,1.10
2022-08-31T17:04:53.927Z,1.13
2022-08-31T17:07:23.805Z,1.52
2022-08-31T17:09:55.016Z,1.20
2022-08-31T17:12:25.970Z,1.40
2022-08-31T17:14:53.373Z,1.30
2022-08-31T17:17:23.521Z,1.02
2022-08-31T17:19:52.086Z,1.40
2022-08-31T17:22:28.470Z,1.17
2022-08-31T17:25:00.141Z,1.15
2022-08-31T17:27:27.446Z,1.40
2022-08-31T17:30:01.032Z,1.40
2022-08-31T17:32:28.634Z,1.15
2022-08-31T17:34:56.356Z,1.20
2022-08-31T17:37:32.240Z,1.30
2022-08-31T17:39:59.824Z,1.30
2022-08-31T17:42:28.185Z,1.05
2022-08-31T17:44:56.883Z,1.23
2022-08-31T17:47:25.224Z,1.10
2022-08-31T17:49:52.771Z,1.00
2022-08-31T17:52:21.733Z,1.50
2022-08-31T17:54:51.051Z,1.40
2022-08-31T17:57:25.139Z,1.35
2022-08-31T17:59:53.170Z,1.30
2022-08-31T18:02:34.601Z,1.23
2022-08-31T18:05:02.727Z,1.20
2022-08-31T18:07:30.066Z,1.17
2022-08-31T18:09:57.409Z,1.30
2022-08-31T18:12:25.749Z,1.33
2022-08-31T18:14:54.044Z,1.23
2022-08-31T18:17:24.307Z,1.17
2022-08-31T18:19:51.486Z,1.23
2022-08-31T18:22:19.820Z,1.50
2022-08-31T18:24:47.054Z,1.30
2022-08-31T18:27:17.275Z,1.20
2022-08-31T18:29:45.011Z,1.35
2022-08-31T18:32:12.872Z,1.20
2022-08-31T18:34:44.709Z,1.40
2022-08-31T18:37:12.987Z,1.20
2022-08-31T18:40:01.585Z,1.30
2022-08-31T18:42:49.277Z,1.30
2022-08-31T18:45:16.865Z,1.85
2022-08-31T18:48:13.682Z,1.50
2022-08-31T18:50:36.952Z,1.50
2022-08-31T18:53:11.163Z,1.60
2022-08-31T18:55:43.603Z,1.65
2022-08-31T18:58:10.784Z,1.45
2022-08-31T19:00:40.223Z,1.70
2022-08-31T19:03:08.089Z,1.50
2022-08-31T19:05:39.144Z,1.70
2022-08-31T19:08:06.412Z,1.65
2022-08-31T19:10:34.774Z,1.55
2022-08-31T19:13:05.391Z,1.77
2022-08-31T19:15:38.845Z,1.50
2022-08-31T19:18:06.364Z,1.60
2022-08-31T19:20:35.589Z,1.30
2022-08-31T19:23:03.046Z,1.60
2022-08-31T19:25:31.866Z,1.75
2022-08-31T19:28:01.494Z,1.60
2022-08-31T19:30:30.343Z,1.48
2022-08-31T19:32:57.366Z,1.45
2022-08-31T19:35:27.406Z,1.30
2022-08-31T19:37:56.238Z,1.65
2022-08-31T19:40:35.666Z,1.65
2022-08-31T19:45:50.907Z,1.60
2022-08-31T19:48:23.126Z,1.50
2022-08-31T19:50:50.420Z,1.42
2022-08-31T19:53:21.021Z,1.42
2022-08-31T19:55:52.540Z,1.27
2022-08-31T19:58:25.674Z,1.60
2022-08-31T20:01:00.788Z,1.30
2022-08-31T20:03:31.146Z,1.70
2022-08-31T20:05:59.920Z,1.42
2022-08-31T20:08:27.077Z,1.50
2022-08-31T20:10:54.042Z,1.55
2022-08-31T20:13:27.950Z,1.30
2022-08-31T20:15:56.140Z,1.58
2022-08-31T20:18:26.922Z,1.63
2022-08-31T20:20:55.129Z,1.55
2022-08-31T20:23:22.936Z,1.60
2022-08-31T20:25:51.525Z,1.50
2022-08-31T20:28:26.360Z,1.55
2022-08-31T20:30:58.973Z,1.60
2022-08-31T20:33:27.024Z,1.60
2022-08-31T20:35:54.031Z,1.73
2022-08-31T20:38:21.126Z,1.33
2022-08-31T20:40:52.888Z,1.45
2022-08-31T20:43:21.422Z,1.60
2022-08-31T20:45:49.089Z,1.65
2022-08-31T20:48:34.854Z,1.70
2022-08-31T20:51:16.197Z,1.42
2022-08-31T20:53:44.611Z,1.48
2022-08-31T20:56:17.472Z,1.42
2022-08-31T20:58:46.118Z,1.63
2022-08-31T21:01:16.145Z,1.63
2022-08-31T21:03:43.672Z,1.45
2022-08-31T21:06:12.229Z,1.88
2022-08-31T21:08:42.722Z,1.58
2022-08-31T21:11:14.895Z,1.58
2022-08-31T21:13:42.915Z,1.42
2022-08-31T21:16:10.338Z,1.75
2022-08-31T21:18:38.697Z,1.20
2022-08-31T21:21:08.381Z,1.40
2022-08-31T21:23:37.219Z,1.40
2022-08-31T21:26:08.541Z,1.20
2022-08-31T21:28:39.389Z,1.65
2022-08-31T21:31:18.649Z,1.60
2022-08-31T21:34:02.876Z,1.33
2022-08-31T21:36:32.894Z,1.60
2022-08-31T21:39:00.527Z,1.67
2022-08-31T21:41:29.373Z,1.50
2022-08-31T21:43:57.989Z,1.27
2022-08-31T21:46:29.395Z,1.42
2022-08-31T21:48:58.805Z,1.27
2022-08-31T21:51:25.670Z,1.65
2022-08-31T21:53:59.244Z,1.60
2022-08-31T21:56:28.332Z,1.30
2022-08-31T21:58:57.547Z,1.20
2022-08-31T22:01:26.837Z,1.50
2022-08-31T22:03:59.182Z,1.48
2022-08-31T22:06:31.237Z,1.20
2022-08-31T22:09:15.745Z,1.67
2022-08-31T22:11:50.800Z,1.45
2022-08-31T22:14:20.094Z,1.30
2022-08-31T22:16:48.061Z,1.38
2022-08-31T22:19:20.816Z,1.50
2022-08-31T22:21:51.526Z,1.10
2022-08-31T22:24:27.404Z,1.50
2022-08-31T22:26:57.499Z,1.70
2022-08-31T22:29:27.929Z,1.40
2022-08-31T22:31:58.771Z,1.35
2022-08-31T22:34:26.528Z,1.40
2022-08-31T22:36:56.420Z,1.50
2022-08-31T22:39:29.449Z,1.70
2022-08-31T22:41:58.580Z,1.53
2022-08-31T22:44:27.952Z,1.67
2022-08-31T22:46:56.394Z,1.15
2022-08-31T22:49:23.597Z,1.45
2022-08-31T22:51:50.680Z,1.60
2022-08-31T22:54:19.509Z,1.50
2022-08-31T22:56:47.371Z,1.40
2022-08-31T22:59:17.398Z,1.63
2022-08-31T23:01:49.960Z,1.60
2022-08-31T23:04:20.382Z,1.63
2022-08-31T23:06:50.628Z,1.50
2022-08-31T23:09:21.233Z,1.63
2022-08-31T23:11:53.012Z,1.47
2022-08-31T23:14:21.283Z,1.73
2022-08-31T23:16:55.172Z,1.53
2022-08-31T23:19:26.317Z,1.50
2022-08-31T23:21:56.778Z,1.50
2022-08-31T23:24:36.713Z,1.50
2022-08-31T23:27:07.337Z,1.40
2022-08-31T23:29:40.042Z,1.40
2022-08-31T23:32:11.166Z,1.13
2022-08-31T23:34:39.417Z,1.53
2022-08-31T23:37:10.449Z,1.10
2022-08-31T23:39:41.141Z,1.50
2022-08-31T23:42:11.213Z,1.43
2022-08-31T23:44:43.311Z,1.60
2022-08-31T23:47:13.640Z,1.40
2022-08-31T23:49:42.315Z,1.40
2022-08-31T23:52:11.817Z,1.20
2022-08-31T23:54:39.642Z,1.80
2022-08-31T23:57:19.206Z,1.47
